sensor_id;sensor_type;location;lat;lon;timestamp;P1;durP1;ratioP1;P2;durP2;ratioP2
58208;SDS011;44006;52.028;4.696;2022-09-09T01:28:16;11.40;;;6.03;;
58208;SDS011;44006;52.028;4.696;2022-09-09T01:30:44;8.43;;;5.65;;
58208;SDS011;44006;52.028;4.696;2022-09-09T01:33:13;16.23;;;6.40;;
58208;SDS011;44006;52.028;4.696;2022-09-09T01:35:48;7.05;;;5.13;;
58208;SDS011;44006;52.028;4.696;2022-09-09T01:38:15;13.00;;;5.65;;
58208;SDS011;44006;52.028;4.696;2022-09-09T01:40:41;9.52;;;5.45;;
58208;SDS011;44006;52.028;4.696;2022-09-09T01:43:06;9.17;;;5.17;;
58208;SDS011;44006;52.028;4.696;2022-09-09T01:45:33;15.38;;;5.35;;
58208;SDS011;44006;52.028;4.696;2022-09-09T01:47:59;8.88;;;4.80;;
58208;SDS011;44006;52.028;4.696;2022-09-09T01:50:24;11.80;;;5.03;;
58208;SDS011;44006;52.028;4.696;2022-09-09T01:52:51;8.23;;;5.40;;
58208;SDS011;44006;52.028;4.696;2022-09-09T01:55:18;10.35;;;5.18;;
58208;SDS011;44006;52.028;4.696;2022-09-09T01:57:51;8.80;;;5.28;;
58208;SDS011;44006;52.028;4.696;2022-09-09T02:00:19;10.30;;;5.35;;
58208;SDS011;44006;52.028;4.696;2022-09-09T02:03:02;9.55;;;5.10;;
58208;SDS011;44006;52.028;4.696;2022-09-09T02:08:11;9.57;;;6.00;;
58208;SDS011;44006;52.028;4.696;2022-09-09T02:10:45;13.18;;;6.20;;
58208;SDS011;44006;52.028;4.696;2022-09-09T02:13:12;9.15;;;5.60;;
58208;SDS011;44006;52.028;4.696;2022-09-09T02:16:00;13.20;;;5.65;;
58208;SDS011;44006;52.028;4.696;2022-09-09T02:18:28;9.55;;;5.47;;
58208;SDS011;44006;52.028;4.696;2022-09-09T02:20:55;7.82;;;5.40;;
58208;SDS011;44006;52.028;4.696;2022-09-09T02:23:21;9.30;;;5.18;;
58208;SDS011;44006;52.028;4.696;2022-09-09T02:25:46;9.80;;;5.53;;
58208;SDS011;44006;52.028;4.696;2022-09-09T02:28:13;8.68;;;5.18;;
58208;SDS011;44006;52.028;4.696;2022-09-09T02:30:40;9.30;;;5.32;;
58208;SDS011;44006;52.028;4.696;2022-09-09T02:33:06;12.15;;;5.80;;
58208;SDS011;44006;52.028;4.696;2022-09-09T02:35:32;10.82;;;5.82;;
58208;SDS011;44006;52.028;4.696;2022-09-09T02:38:04;11.48;;;6.00;;
58208;SDS011;44006;52.028;4.696;2022-09-09T02:40:29;7.20;;;5.40;;
58208;SDS011;44006;52.028;4.696;2022-09-09T02:42:55;11.23;;;5.93;;
58208;SDS011;44006;52.028;4.696;2022-09-09T02:45:22;9.85;;;5.70;;
58208;SDS011;44006;52.028;4.696;2022-09-09T02:50:33;10.20;;;5.68;;
58208;SDS011;44006;52.028;4.696;2022-09-09T02:56:04;11.65;;;6.07;;
58208;SDS011;44006;52.028;4.696;2022-09-09T02:58:30;11.25;;;6.03;;
58208;SDS011;44006;52.028;4.696;2022-09-09T03:00:55;17.20;;;6.78;;
58208;SDS011;44006;52.028;4.696;2022-09-09T03:03:22;9.77;;;6.22;;
58208;SDS011;44006;52.028;4.696;2022-09-09T03:05:48;10.13;;;6.03;;
58208;SDS011;44006;52.028;4.696;2022-09-09T03:08:14;12.10;;;6.78;;
58208;SDS011;44006;52.028;4.696;2022-09-09T03:10:39;11.27;;;6.65;;
58208;SDS011;44006;52.028;4.696;2022-09-09T03:13:05;10.57;;;6.13;;
58208;SDS011;44006;52.028;4.696;2022-09-09T03:15:33;12.40;;;6.30;;
58208;SDS011;44006;52.028;4.696;2022-09-09T03:17:59;11.07;;;6.43;;
58208;SDS011;44006;52.028;4.696;2022-09-09T03:20:24;11.20;;;6.63;;
58208;SDS011;44006;52.028;4.696;2022-09-09T03:22:51;10.27;;;6.57;;
58208;SDS011;44006;52.028;4.696;2022-09-09T03:25:16;10.82;;;6.63;;
58208;SDS011;44006;52.028;4.696;2022-09-09T03:27:42;14.10;;;6.47;;
58208;SDS011;44006;52.028;4.696;2022-09-09T03:30:09;12.60;;;7.23;;
58208;SDS011;44006;52.028;4.696;2022-09-09T03:32:34;11.73;;;6.85;;
58208;SDS011;44006;52.028;4.696;2022-09-09T03:34:59;13.50;;;6.45;;
58208;SDS011;44006;52.028;4.696;2022-09-09T03:37:25;12.65;;;6.53;;
58208;SDS011;44006;52.028;4.696;2022-09-09T03:39:50;12.85;;;6.75;;
58208;SDS011;44006;52.028;4.696;2022-09-09T03:42:15;13.60;;;6.67;;
58208;SDS011;44006;52.028;4.696;2022-09-09T03:44:43;11.57;;;6.25;;
58208;SDS011;44006;52.028;4.696;2022-09-09T03:47:10;13.45;;;6.47;;
58208;SDS011;44006;52.028;4.696;2022-09-09T03:49:35;13.97;;;6.90;;
58208;SDS011;44006;52.028;4.696;2022-09-09T03:52:00;12.27;;;6.28;;
58208;SDS011;44006;52.028;4.696;2022-09-09T03:54:26;9.20;;;6.18;;
58208;SDS011;44006;52.028;4.696;2022-09-09T03:56:52;12.50;;;6.10;;
58208;SDS011;44006;52.028;4.696;2022-09-09T03:59:17;9.95;;;5.22;;
58208;SDS011;44006;52.028;4.696;2022-09-09T04:01:42;10.43;;;5.33;;
58208;SDS011;44006;52.028;4.696;2022-09-09T04:04:08;12.90;;;5.47;;
58208;SDS011;44006;52.028;4.696;2022-09-09T04:06:34;10.82;;;5.45;;
58208;SDS011;44006;52.028;4.696;2022-09-09T04:09:01;11.30;;;5.53;;
58208;SDS011;44006;52.028;4.696;2022-09-09T04:11:28;11.02;;;5.03;;
58208;SDS011;44006;52.028;4.696;2022-09-09T04:13:53;7.93;;;5.13;;
58208;SDS011;44006;52.028;4.696;2022-09-09T04:16:18;10.67;;;5.37;;
58208;SDS011;44006;52.028;4.696;2022-09-09T04:18:45;8.02;;;4.45;;
58208;SDS011;44006;52.028;4.696;2022-09-09T04:21:10;8.50;;;4.45;;
58208;SDS011;44006;52.028;4.696;2022-09-09T04:23:37;9.77;;;4.15;;
58208;SDS011;44006;52.028;4.696;2022-09-09T04:26:02;8.10;;;4.45;;
58208;SDS011;44006;52.028;4.696;2022-09-09T04:28:30;7.85;;;4.20;;
58208;SDS011;44006;52.028;4.696;2022-09-09T04:30:55;10.07;;;4.47;;
58208;SDS011;44006;52.028;4.696;2022-09-09T04:33:23;8.15;;;3.63;;
58208;SDS011;44006;52.028;4.696;2022-09-09T04:35:50;7.95;;;3.95;;
58208;SDS011;44006;52.028;4.696;2022-09-09T04:38:16;9.68;;;3.80;;
58208;SDS011;44006;52.028;4.696;2022-09-09T04:40:43;8.75;;;3.83;;
58208;SDS011;44006;52.028;4.696;2022-09-09T04:43:08;9.00;;;3.45;;
58208;SDS011;44006;52.028;4.696;2022-09-09T04:45:34;6.80;;;3.88;;
58208;SDS011;44006;52.028;4.696;2022-09-09T04:47:59;9.60;;;4.43;;
58208;SDS011;44006;52.028;4.696;2022-09-09T04:50:24;11.82;;;4.50;;
58208;SDS011;44006;52.028;4.696;2022-09-09T04:52:50;13.02;;;4.03;;
58208;SDS011;44006;52.028;4.696;2022-09-09T04:55:15;11.23;;;3.33;;
58208;SDS011;44006;52.028;4.696;2022-09-09T04:57:41;8.45;;;3.13;;
58208;SDS011;44006;52.028;4.696;2022-09-09T05:00:07;8.70;;;3.38;;
58208;SDS011;44006;52.028;4.696;2022-09-09T05:02:33;10.60;;;4.03;;
58208;SDS011;44006;52.028;4.696;2022-09-09T05:05:01;8.77;;;3.90;;
58208;SDS011;44006;52.028;4.696;2022-09-09T05:07:27;8.20;;;3.20;;
58208;SDS011;44006;52.028;4.696;2022-09-09T05:09:53;9.65;;;3.67;;
58208;SDS011;44006;52.028;4.696;2022-09-09T05:12:19;8.38;;;3.63;;
58208;SDS011;44006;52.028;4.696;2022-09-09T05:14:44;10.73;;;3.70;;
58208;SDS011;44006;52.028;4.696;2022-09-09T05:17:09;6.25;;;3.40;;
58208;SDS011;44006;52.028;4.696;2022-09-09T05:19:35;10.63;;;4.05;;
58208;SDS011;44006;52.028;4.696;2022-09-09T05:22:00;9.60;;;3.63;;
58208;SDS011;44006;52.028;4.696;2022-09-09T05:24:26;9.40;;;3.67;;
58208;SDS011;44006;52.028;4.696;2022-09-09T05:26:51;9.13;;;3.55;;
58208;SDS011;44006;52.028;4.696;2022-09-09T05:29:16;8.93;;;3.40;;
58208;SDS011;44006;52.028;4.696;2022-09-09T05:31:44;9.27;;;3.30;;
58208;SDS011;44006;52.028;4.696;2022-09-09T05:34:09;8.43;;;3.60;;
58208;SDS011;44006;52.028;4.696;2022-09-09T05:36:35;7.57;;;3.00;;
58208;SDS011;44006;52.028;4.696;2022-09-09T05:39:00;7.22;;;3.33;;
58208;SDS011;44006;52.028;4.696;2022-09-09T05:41:27;7.68;;;3.50;;
58208;SDS011;44006;52.028;4.696;2022-09-09T05:43:53;10.43;;;3.70;;
58208;SDS011;44006;52.028;4.696;2022-09-09T05:46:20;6.90;;;3.15;;
58208;SDS011;44006;52.028;4.696;2022-09-09T05:48:46;9.20;;;3.55;;
58208;SDS011;44006;52.028;4.696;2022-09-09T05:51:13;13.45;;;4.10;;
58208;SDS011;44006;52.028;4.696;2022-09-09T05:53:40;12.60;;;4.38;;
58208;SDS011;44006;52.028;4.696;2022-09-09T05:56:07;8.88;;;3.28;;
58208;SDS011;44006;52.028;4.696;2022-09-09T05:58:35;9.77;;;2.90;;
58208;SDS011;44006;52.028;4.696;2022-09-09T06:01:22;10.15;;;3.40;;
58208;SDS011;44006;52.028;4.696;2022-09-09T06:03:46;10.77;;;3.70;;
58208;SDS011;44006;52.028;4.696;2022-09-09T06:06:13;10.88;;;4.10;;
58208;SDS011;44006;52.028;4.696;2022-09-09T06:08:39;13.90;;;3.83;;
58208;SDS011;44006;52.028;4.696;2022-09-09T06:11:06;12.15;;;3.65;;
58208;SDS011;44006;52.028;4.696;2022-09-09T06:13:32;12.07;;;3.45;;
58208;SDS011;44006;52.028;4.696;2022-09-09T06:15:58;12.65;;;3.15;;
58208;SDS011;44006;52.028;4.696;2022-09-09T06:18:23;12.77;;;3.75;;
58208;SDS011;44006;52.028;4.696;2022-09-09T06:23:20;9.55;;;3.20;;
58208;SDS011;44006;52.028;4.696;2022-09-09T06:25:45;13.20;;;3.53;;
58208;SDS011;44006;52.028;4.696;2022-09-09T06:28:12;12.30;;;3.78;;
58208;SDS011;44006;52.028;4.696;2022-09-09T06:30:38;7.88;;;2.83;;
58208;SDS011;44006;52.028;4.696;2022-09-09T06:33:04;13.73;;;3.33;;
58208;SDS011;44006;52.028;4.696;2022-09-09T06:35:30;11.13;;;3.20;;
58208;SDS011;44006;52.028;4.696;2022-09-09T06:37:55;12.23;;;3.37;;
58208;SDS011;44006;52.028;4.696;2022-09-09T06:40:20;8.80;;;2.80;;
58208;SDS011;44006;52.028;4.696;2022-09-09T06:42:45;12.95;;;3.50;;
58208;SDS011;44006;52.028;4.696;2022-09-09T06:45:11;8.20;;;3.17;;
58208;SDS011;44006;52.028;4.696;2022-09-09T06:47:36;10.10;;;3.60;;
58208;SDS011;44006;52.028;4.696;2022-09-09T06:50:02;12.85;;;3.72;;
58208;SDS011;44006;52.028;4.696;2022-09-09T06:52:28;10.40;;;3.50;;
58208;SDS011;44006;52.028;4.696;2022-09-09T06:54:54;11.93;;;3.78;;
58208;SDS011;44006;52.028;4.696;2022-09-09T06:57:20;8.70;;;3.60;;
58208;SDS011;44006;52.028;4.696;2022-09-09T06:59:45;10.03;;;3.77;;
58208;SDS011;44006;52.028;4.696;2022-09-09T07:02:10;13.93;;;4.80;;
58208;SDS011;44006;52.028;4.696;2022-09-09T07:04:36;11.88;;;5.13;;
58208;SDS011;44006;52.028;4.696;2022-09-09T07:07:02;11.50;;;5.25;;
58208;SDS011;44006;52.028;4.696;2022-09-09T07:09:27;16.20;;;5.78;;
58208;SDS011;44006;52.028;4.696;2022-09-09T07:11:55;11.48;;;5.30;;
58208;SDS011;44006;52.028;4.696;2022-09-09T07:14:24;21.15;;;6.03;;
58208;SDS011;44006;52.028;4.696;2022-09-09T07:16:49;14.93;;;5.40;;
58208;SDS011;44006;52.028;4.696;2022-09-09T07:19:14;11.52;;;5.22;;
58208;SDS011;44006;52.028;4.696;2022-09-09T07:21:40;11.43;;;5.60;;
58208;SDS011;44006;52.028;4.696;2022-09-09T07:24:05;17.65;;;5.95;;
58208;SDS011;44006;52.028;4.696;2022-09-09T07:26:32;12.23;;;6.30;;
58208;SDS011;44006;52.028;4.696;2022-09-09T07:28:58;13.57;;;6.65;;
58208;SDS011;44006;52.028;4.696;2022-09-09T07:31:28;9.35;;;5.10;;
58208;SDS011;44006;52.028;4.696;2022-09-09T07:33:55;14.20;;;5.75;;
58208;SDS011;44006;52.028;4.696;2022-09-09T07:36:21;10.13;;;5.65;;
58208;SDS011;44006;52.028;4.696;2022-09-09T07:38:48;11.57;;;6.03;;
58208;SDS011;44006;52.028;4.696;2022-09-09T07:43:45;10.05;;;5.85;;
58208;SDS011;44006;52.028;4.696;2022-09-09T07:46:11;15.73;;;6.63;;
58208;SDS011;44006;52.028;4.696;2022-09-09T07:48:37;15.55;;;6.35;;
58208;SDS011;44006;52.028;4.696;2022-09-09T07:51:07;13.80;;;6.15;;
58208;SDS011;44006;52.028;4.696;2022-09-09T07:53:37;14.32;;;6.38;;
58208;SDS011;44006;52.028;4.696;2022-09-09T07:56:07;12.25;;;6.10;;
58208;SDS011;44006;52.028;4.696;2022-09-09T07:58:34;9.85;;;6.05;;
58208;SDS011;44006;52.028;4.696;2022-09-09T08:01:05;11.25;;;5.68;;
58208;SDS011;44006;52.028;4.696;2022-09-09T08:03:30;12.57;;;6.88;;
58208;SDS011;44006;52.028;4.696;2022-09-09T08:06:10;12.95;;;6.13;;
58208;SDS011;44006;52.028;4.696;2022-09-09T08:08:38;12.48;;;6.07;;
58208;SDS011;44006;52.028;4.696;2022-09-09T08:17:14;12.32;;;6.55;;
58208;SDS011;44006;52.028;4.696;2022-09-09T08:22:16;13.98;;;5.80;;
58208;SDS011;44006;52.028;4.696;2022-09-09T08:24:42;15.93;;;6.43;;
58208;SDS011;44006;52.028;4.696;2022-09-09T08:27:07;12.73;;;5.00;;
58208;SDS011;44006;52.028;4.696;2022-09-09T08:29:53;12.50;;;6.10;;
58208;SDS011;44006;52.028;4.696;2022-09-09T08:35:27;10.30;;;5.18;;
58208;SDS011;44006;52.028;4.696;2022-09-09T08:39:17;15.15;;;5.25;;
58208;SDS011;44006;52.028;4.696;2022-09-09T09:37:45;14.88;;;5.38;;
58208;SDS011;44006;52.028;4.696;2022-09-09T09:39:52;10.63;;;4.05;;
58208;SDS011;44006;52.028;4.696;2022-09-09T09:42:20;15.50;;;4.57;;
58208;SDS011;44006;52.028;4.696;2022-09-09T09:44:51;14.38;;;5.10;;
58208;SDS011;44006;52.028;4.696;2022-09-09T09:47:23;11.00;;;4.15;;
58208;SDS011;44006;52.028;4.696;2022-09-09T09:52:41;13.02;;;4.35;;
58208;SDS011;44006;52.028;4.696;2022-09-09T09:55:18;16.65;;;4.85;;
58208;SDS011;44006;52.028;4.696;2022-09-09T09:57:44;11.75;;;4.50;;
58208;SDS011;44006;52.028;4.696;2022-09-09T10:00:14;14.77;;;4.68;;
58208;SDS011;44006;52.028;4.696;2022-09-09T10:02:41;13.68;;;4.75;;
58208;SDS011;44006;52.028;4.696;2022-09-09T10:05:16;10.25;;;4.38;;
58208;SDS011;44006;52.028;4.696;2022-09-09T10:07:57;12.25;;;4.70;;
58208;SDS011;44006;52.028;4.696;2022-09-09T10:10:26;12.10;;;4.47;;
58208;SDS011;44006;52.028;4.696;2022-09-09T10:31:21;13.13;;;3.90;;
58208;SDS011;44006;52.028;4.696;2022-09-09T10:33:49;9.07;;;4.88;;
58208;SDS011;44006;52.028;4.696;2022-09-09T10:36:25;13.48;;;3.80;;
58208;SDS011;44006;52.028;4.696;2022-09-09T10:39:04;8.77;;;4.00;;
58208;SDS011;44006;52.028;4.696;2022-09-09T10:44:28;9.70;;;3.92;;
58208;SDS011;44006;52.028;4.696;2022-09-09T10:52:21;12.30;;;3.97;;
58208;SDS011;44006;52.028;4.696;2022-09-09T10:59:54;13.93;;;5.22;;
58208;SDS011;44006;52.028;4.696;2022-09-09T11:02:30;10.38;;;4.10;;
58208;SDS011;44006;52.028;4.696;2022-09-09T11:07:50;8.70;;;3.58;;
58208;SDS011;44006;52.028;4.696;2022-09-09T11:12:49;10.13;;;3.28;;
58208;SDS011;44006;52.028;4.696;2022-09-09T11:15:22;8.65;;;2.70;;
58208;SDS011;44006;52.028;4.696;2022-09-09T11:17:50;5.03;;;2.50;;
58208;SDS011;44006;52.028;4.696;2022-09-09T11:20:19;7.10;;;3.28;;
58208;SDS011;44006;52.028;4.696;2022-09-09T11:22:48;10.20;;;3.13;;
58208;SDS011;44006;52.028;4.696;2022-09-09T11:35:31;9.45;;;4.15;;
58208;SDS011;44006;52.028;4.696;2022-09-09T11:40:26;8.48;;;4.25;;
58208;SDS011;44006;52.028;4.696;2022-09-09T11:45:29;9.07;;;4.47;;
58208;SDS011;44006;52.028;4.696;2022-09-09T11:47:57;10.98;;;4.47;;
58208;SDS011;44006;52.028;4.696;2022-09-09T11:52:50;10.90;;;5.05;;
58208;SDS011;44006;52.028;4.696;2022-09-09T11:55:32;11.95;;;4.90;;
58208;SDS011;44006;52.028;4.696;2022-09-09T11:58:13;9.95;;;5.00;;
58208;SDS011;44006;52.028;4.696;2022-09-09T12:00:45;9.82;;;5.65;;
58208;SDS011;44006;52.028;4.696;2022-09-09T12:03:31;11.88;;;5.72;;
58208;SDS011;44006;52.028;4.696;2022-09-09T12:05:56;10.93;;;5.43;;
58208;SDS011;44006;52.028;4.696;2022-09-09T12:08:25;13.13;;;6.28;;
58208;SDS011;44006;52.028;4.696;2022-09-09T12:10:56;10.25;;;5.70;;
58208;SDS011;44006;52.028;4.696;2022-09-09T12:13:22;11.98;;;5.88;;
58208;SDS011;44006;52.028;4.696;2022-09-09T12:15:52;10.68;;;6.07;;
58208;SDS011;44006;52.028;4.696;2022-09-09T12:18:26;10.10;;;6.50;;
58208;SDS011;44006;52.028;4.696;2022-09-09T12:29:02;15.45;;;7.38;;
58208;SDS011;44006;52.028;4.696;2022-09-09T12:31:34;15.05;;;7.10;;
58208;SDS011;44006;52.028;4.696;2022-09-09T12:36:40;22.27;;;8.30;;
58208;SDS011;44006;52.028;4.696;2022-09-09T12:39:49;24.63;;;9.23;;
58208;SDS011;44006;52.028;4.696;2022-09-09T12:41:55;15.77;;;10.02;;
58208;SDS011;44006;52.028;4.696;2022-09-09T12:44:21;22.23;;;8.48;;
58208;SDS011;44006;52.028;4.696;2022-09-09T12:46:47;14.40;;;7.05;;
58208;SDS011;44006;52.028;4.696;2022-09-09T12:49:46;16.48;;;7.50;;
58208;SDS011;44006;52.028;4.696;2022-09-09T12:52:07;21.23;;;8.18;;
58208;SDS011;44006;52.028;4.696;2022-09-09T12:54:35;21.90;;;6.80;;
58208;SDS011;44006;52.028;4.696;2022-09-09T12:57:01;14.75;;;5.85;;
58208;SDS011;44006;52.028;4.696;2022-09-09T12:59:34;10.18;;;5.63;;
58208;SDS011;44006;52.028;4.696;2022-09-09T13:02:00;13.15;;;6.28;;
58208;SDS011;44006;52.028;4.696;2022-09-09T13:04:26;11.75;;;5.55;;
58208;SDS011;44006;52.028;4.696;2022-09-09T13:06:52;14.52;;;6.25;;
58208;SDS011;44006;52.028;4.696;2022-09-09T13:09:17;14.15;;;6.38;;
58208;SDS011;44006;52.028;4.696;2022-09-09T13:11:44;15.50;;;5.85;;
58208;SDS011;44006;52.028;4.696;2022-09-09T13:14:19;11.85;;;6.22;;
58208;SDS011;44006;52.028;4.696;2022-09-09T13:16:54;17.02;;;7.07;;
58208;SDS011;44006;52.028;4.696;2022-09-09T13:19:21;12.15;;;6.32;;
58208;SDS011;44006;52.028;4.696;2022-09-09T13:21:47;18.20;;;6.35;;
58208;SDS011;44006;52.028;4.696;2022-09-09T13:24:25;13.25;;;6.53;;
58208;SDS011;44006;52.028;4.696;2022-09-09T13:27:00;12.60;;;5.70;;
58208;SDS011;44006;52.028;4.696;2022-09-09T13:29:28;11.32;;;5.38;;
58208;SDS011;44006;52.028;4.696;2022-09-09T13:32:02;12.30;;;4.53;;
58208;SDS011;44006;52.028;4.696;2022-09-09T13:34:29;11.13;;;5.60;;
58208;SDS011;44006;52.028;4.696;2022-09-09T13:37:17;11.60;;;4.72;;
58208;SDS011;44006;52.028;4.696;2022-09-09T13:39:50;8.30;;;4.18;;
58208;SDS011;44006;52.028;4.696;2022-09-09T13:42:25;9.48;;;4.35;;
58208;SDS011;44006;52.028;4.696;2022-09-09T13:44:52;7.32;;;4.13;;
58208;SDS011;44006;52.028;4.696;2022-09-09T13:47:18;11.70;;;4.78;;
58208;SDS011;44006;52.028;4.696;2022-09-09T13:49:48;7.47;;;4.80;;
58208;SDS011;44006;52.028;4.696;2022-09-09T13:52:14;9.05;;;5.45;;
58208;SDS011;44006;52.028;4.696;2022-09-09T13:54:40;12.07;;;4.32;;
58208;SDS011;44006;52.028;4.696;2022-09-09T13:57:14;9.15;;;4.60;;
58208;SDS011;44006;52.028;4.696;2022-09-09T13:59:42;13.95;;;5.00;;
58208;SDS011;44006;52.028;4.696;2022-09-09T14:02:10;7.63;;;4.50;;
58208;SDS011;44006;52.028;4.696;2022-09-09T14:04:35;10.20;;;4.10;;
58208;SDS011;44006;52.028;4.696;2022-09-09T14:07:01;7.22;;;3.90;;
58208;SDS011;44006;52.028;4.696;2022-09-09T14:09:26;8.70;;;3.40;;
58208;SDS011;44006;52.028;4.696;2022-09-09T14:11:52;11.32;;;3.05;;
58208;SDS011;44006;52.028;4.696;2022-09-09T14:14:17;7.13;;;2.22;;
58208;SDS011;44006;52.028;4.696;2022-09-09T14:16:42;9.20;;;2.65;;
58208;SDS011;44006;52.028;4.696;2022-09-09T14:19:08;7.95;;;2.55;;
58208;SDS011;44006;52.028;4.696;2022-09-09T14:21:33;5.18;;;1.88;;
58208;SDS011;44006;52.028;4.696;2022-09-09T14:23:58;6.15;;;2.60;;
58208;SDS011;44006;52.028;4.696;2022-09-09T14:26:24;4.72;;;2.30;;
58208;SDS011;44006;52.028;4.696;2022-09-09T14:28:49;7.85;;;2.88;;
58208;SDS011;44006;52.028;4.696;2022-09-09T14:31:15;7.88;;;2.72;;
58208;SDS011;44006;52.028;4.696;2022-09-09T14:33:42;5.90;;;2.83;;
58208;SDS011;44006;52.028;4.696;2022-09-09T14:36:07;6.22;;;2.63;;
58208;SDS011;44006;52.028;4.696;2022-09-09T14:38:33;12.07;;;3.03;;
58208;SDS011;44006;52.028;4.696;2022-09-09T14:41:02;5.82;;;2.33;;
58208;SDS011;44006;52.028;4.696;2022-09-09T14:43:28;7.95;;;2.63;;
58208;SDS011;44006;52.028;4.696;2022-09-09T14:45:54;5.32;;;2.80;;
58208;SDS011;44006;52.028;4.696;2022-09-09T14:48:20;10.30;;;2.55;;
58208;SDS011;44006;52.028;4.696;2022-09-09T14:50:45;7.70;;;2.93;;
58208;SDS011;44006;52.028;4.696;2022-09-09T14:53:11;7.13;;;2.85;;
58208;SDS011;44006;52.028;4.696;2022-09-09T14:55:37;6.78;;;3.45;;
58208;SDS011;44006;52.028;4.696;2022-09-09T14:58:03;10.93;;;3.30;;
58208;SDS011;44006;52.028;4.696;2022-09-09T15:00:29;5.65;;;3.50;;
58208;SDS011;44006;52.028;4.696;2022-09-09T15:02:55;8.10;;;3.60;;
58208;SDS011;44006;52.028;4.696;2022-09-09T15:05:20;9.10;;;3.00;;
58208;SDS011;44006;52.028;4.696;2022-09-09T15:07:47;8.30;;;3.35;;
58208;SDS011;44006;52.028;4.696;2022-09-09T15:10:13;7.82;;;3.60;;
58208;SDS011;44006;52.028;4.696;2022-09-09T15:12:38;7.20;;;3.03;;
58208;SDS011;44006;52.028;4.696;2022-09-09T15:15:04;6.97;;;2.97;;
58208;SDS011;44006;52.028;4.696;2022-09-09T15:17:29;7.22;;;3.22;;
58208;SDS011;44006;52.028;4.696;2022-09-09T15:19:55;8.48;;;2.50;;
58208;SDS011;44006;52.028;4.696;2022-09-09T15:22:20;7.55;;;2.95;;
58208;SDS011;44006;52.028;4.696;2022-09-09T15:24:45;8.63;;;2.90;;
58208;SDS011;44006;52.028;4.696;2022-09-09T15:27:12;8.90;;;2.88;;
58208;SDS011;44006;52.028;4.696;2022-09-09T15:29:41;5.30;;;2.35;;
58208;SDS011;44006;52.028;4.696;2022-09-09T15:32:07;8.45;;;2.88;;
58208;SDS011;44006;52.028;4.696;2022-09-09T15:34:33;9.43;;;2.70;;
58208;SDS011;44006;52.028;4.696;2022-09-09T15:36:59;4.50;;;2.05;;
58208;SDS011;44006;52.028;4.696;2022-09-09T15:39:25;5.50;;;2.45;;
58208;SDS011;44006;52.028;4.696;2022-09-09T15:41:50;10.82;;;2.47;;
58208;SDS011;44006;52.028;4.696;2022-09-09T15:44:16;6.88;;;2.83;;
58208;SDS011;44006;52.028;4.696;2022-09-09T15:46:52;7.00;;;2.17;;
58208;SDS011;44006;52.028;4.696;2022-09-09T15:49:24;11.00;;;2.47;;
58208;SDS011;44006;52.028;4.696;2022-09-09T15:51:54;6.40;;;2.35;;
58208;SDS011;44006;52.028;4.696;2022-09-09T15:54:20;9.07;;;2.80;;
58208;SDS011;44006;52.028;4.696;2022-09-09T15:56:49;9.20;;;3.00;;
58208;SDS011;44006;52.028;4.696;2022-09-09T15:59:15;8.40;;;2.92;;
58208;SDS011;44006;52.028;4.696;2022-09-09T16:01:41;6.93;;;3.13;;
58208;SDS011;44006;52.028;4.696;2022-09-09T16:04:07;9.30;;;2.80;;
58208;SDS011;44006;52.028;4.696;2022-09-09T16:06:32;9.45;;;2.97;;
58208;SDS011;44006;52.028;4.696;2022-09-09T16:08:58;10.23;;;3.80;;
58208;SDS011;44006;52.028;4.696;2022-09-09T16:11:26;10.70;;;4.70;;
58208;SDS011;44006;52.028;4.696;2022-09-09T16:13:52;11.02;;;5.40;;
58208;SDS011;44006;52.028;4.696;2022-09-09T16:16:19;14.55;;;5.90;;
58208;SDS011;44006;52.028;4.696;2022-09-09T16:18:47;9.65;;;4.50;;
58208;SDS011;44006;52.028;4.696;2022-09-09T16:21:17;11.13;;;5.75;;
58208;SDS011;44006;52.028;4.696;2022-09-09T16:23:44;14.02;;;5.80;;
58208;SDS011;44006;52.028;4.696;2022-09-09T16:26:13;13.60;;;6.22;;
58208;SDS011;44006;52.028;4.696;2022-09-09T16:28:39;15.63;;;6.07;;
58208;SDS011;44006;52.028;4.696;2022-09-09T16:31:05;14.95;;;7.45;;
58208;SDS011;44006;52.028;4.696;2022-09-09T16:33:32;14.27;;;8.02;;
58208;SDS011;44006;52.028;4.696;2022-09-09T16:35:57;18.42;;;7.88;;
58208;SDS011;44006;52.028;4.696;2022-09-09T16:38:22;12.15;;;7.25;;
58208;SDS011;44006;52.028;4.696;2022-09-09T16:40:48;17.15;;;7.60;;
58208;SDS011;44006;52.028;4.696;2022-09-09T16:43:15;9.73;;;6.53;;
58208;SDS011;44006;52.028;4.696;2022-09-09T16:45:43;12.15;;;6.05;;
58208;SDS011;44006;52.028;4.696;2022-09-09T16:48:09;18.83;;;7.35;;
58208;SDS011;44006;52.028;4.696;2022-09-09T16:50:35;13.32;;;7.78;;
58208;SDS011;44006;52.028;4.696;2022-09-09T16:53:01;12.10;;;5.82;;
58208;SDS011;44006;52.028;4.696;2022-09-09T16:55:31;12.68;;;6.00;;
58208;SDS011;44006;52.028;4.696;2022-09-09T16:57:56;17.85;;;6.25;;
58208;SDS011;44006;52.028;4.696;2022-09-09T17:00:22;20.83;;;8.70;;
58208;SDS011;44006;52.028;4.696;2022-09-09T17:02:48;12.73;;;9.10;;
58208;SDS011;44006;52.028;4.696;2022-09-09T17:05:13;14.63;;;8.00;;
58208;SDS011;44006;52.028;4.696;2022-09-09T17:07:39;11.50;;;6.60;;
58208;SDS011;44006;52.028;4.696;2022-09-09T17:10:06;10.75;;;5.75;;
58208;SDS011;44006;52.028;4.696;2022-09-09T17:12:32;15.95;;;5.95;;
58208;SDS011;44006;52.028;4.696;2022-09-09T17:14:57;11.90;;;5.25;;
58208;SDS011;44006;52.028;4.696;2022-09-09T17:17:24;9.57;;;5.05;;
58208;SDS011;44006;52.028;4.696;2022-09-09T17:19:50;7.47;;;4.90;;
58208;SDS011;44006;52.028;4.696;2022-09-09T17:22:15;14.65;;;6.78;;
58208;SDS011;44006;52.028;4.696;2022-09-09T17:24:40;11.85;;;4.68;;
58208;SDS011;44006;52.028;4.696;2022-09-09T17:27:06;9.23;;;5.55;;
58208;SDS011;44006;52.028;4.696;2022-09-09T17:29:31;10.73;;;5.15;;
58208;SDS011;44006;52.028;4.696;2022-09-09T17:31:57;15.60;;;5.95;;
58208;SDS011;44006;52.028;4.696;2022-09-09T17:34:23;9.30;;;5.25;;
58208;SDS011;44006;52.028;4.696;2022-09-09T17:36:50;14.32;;;5.47;;
58208;SDS011;44006;52.028;4.696;2022-09-09T17:39:15;10.00;;;5.20;;
58208;SDS011;44006;52.028;4.696;2022-09-09T17:41:40;17.73;;;6.07;;
58208;SDS011;44006;52.028;4.696;2022-09-09T17:44:06;10.80;;;5.22;;
58208;SDS011;44006;52.028;4.696;2022-09-09T17:46:41;12.20;;;5.78;;
58208;SDS011;44006;52.028;4.696;2022-09-09T17:49:11;15.30;;;7.43;;
58208;SDS011;44006;52.028;4.696;2022-09-09T17:51:37;14.52;;;7.78;;
58208;SDS011;44006;52.028;4.696;2022-09-09T17:54:06;8.75;;;6.03;;
58208;SDS011;44006;52.028;4.696;2022-09-09T17:56:35;15.82;;;6.13;;
58208;SDS011;44006;52.028;4.696;2022-09-09T17:59:01;10.73;;;5.38;;
58208;SDS011;44006;52.028;4.696;2022-09-09T18:01:28;11.55;;;5.78;;
58208;SDS011;44006;52.028;4.696;2022-09-09T18:03:59;12.00;;;5.28;;
58208;SDS011;44006;52.028;4.696;2022-09-09T18:06:27;9.05;;;5.15;;
58208;SDS011;44006;52.028;4.696;2022-09-09T18:08:56;11.45;;;6.18;;
58208;SDS011;44006;52.028;4.696;2022-09-09T18:11:25;12.20;;;5.47;;
58208;SDS011;44006;52.028;4.696;2022-09-09T18:14:09;14.75;;;6.45;;
58208;SDS011;44006;52.028;4.696;2022-09-09T18:16:35;11.02;;;6.03;;
58208;SDS011;44006;52.028;4.696;2022-09-09T18:19:01;9.48;;;5.43;;
58208;SDS011;44006;52.028;4.696;2022-09-09T18:21:31;16.30;;;5.55;;
58208;SDS011;44006;52.028;4.696;2022-09-09T18:24:04;6.85;;;4.50;;
58208;SDS011;44006;52.028;4.696;2022-09-09T18:29:28;8.27;;;3.72;;
58208;SDS011;44006;52.028;4.696;2022-09-09T18:31:54;7.10;;;3.58;;
58208;SDS011;44006;52.028;4.696;2022-09-09T18:34:19;11.68;;;4.25;;
58208;SDS011;44006;52.028;4.696;2022-09-09T18:36:47;12.45;;;4.07;;
58208;SDS011;44006;52.028;4.696;2022-09-09T18:39:14;12.60;;;4.22;;
58208;SDS011;44006;52.028;4.696;2022-09-09T18:41:44;8.60;;;4.15;;
58208;SDS011;44006;52.028;4.696;2022-09-09T18:44:11;12.73;;;4.03;;